createdAt,value
2019-01-28T00:01:03.779Z,3.45
2019-01-28T00:03:51.531Z,3.44
2019-01-28T00:06:39.554Z,3.27
2019-01-28T00:12:16.055Z,3.28
2019-01-28T00:14:44.473Z,3.47
2019-01-28T00:17:12.898Z,3.39
2019-01-28T00:22:15.262Z,3.34
2019-01-28T00:24:43.683Z,3.67
2019-01-28T00:29:46.018Z,3.25
2019-01-28T00:32:14.440Z,3.44
2019-01-28T00:34:42.910Z,3.58
2019-01-28T00:37:11.329Z,3.33
2019-01-28T00:39:39.753Z,3.24
2019-01-28T00:42:08.434Z,3.58
2019-01-28T00:44:36.921Z,3.46
2019-01-28T00:47:05.591Z,3.51
2019-01-28T00:49:34.045Z,3.50
2019-01-28T00:52:02.458Z,3.45
2019-01-28T00:54:30.906Z,3.41
2019-01-28T00:56:59.422Z,3.51
2019-01-28T00:59:27.842Z,3.41
2019-01-28T01:01:56.262Z,3.50
2019-01-28T01:04:25.072Z,3.37
2019-01-28T01:06:53.634Z,3.38
2019-01-28T01:09:22.118Z,3.61
2019-01-28T01:11:50.590Z,3.53
2019-01-28T01:14:19.029Z,3.53
2019-01-28T01:16:47.448Z,3.39
2019-01-28T01:19:16.077Z,3.23
2019-01-28T01:21:44.539Z,3.20
2019-01-28T01:24:12.938Z,3.56
2019-01-28T01:26:41.483Z,3.55
2019-01-28T01:29:09.949Z,3.47
2019-01-28T01:31:38.373Z,3.34
2019-01-28T01:34:06.823Z,3.61
2019-01-28T01:36:35.239Z,3.33
2019-01-28T01:39:05.228Z,3.41
2019-01-28T01:41:33.697Z,3.39
2019-01-28T01:44:02.115Z,3.41
2019-01-28T01:46:30.535Z,3.66
2019-01-28T01:48:58.986Z,3.62
2019-01-28T01:51:27.483Z,3.47
2019-01-28T01:53:55.909Z,3.57
2019-01-28T01:56:24.391Z,3.50
2019-01-28T01:58:52.805Z,3.56
2019-01-28T02:01:21.227Z,3.50
2019-01-28T02:03:49.669Z,3.65
2019-01-28T02:06:18.090Z,3.53
2019-01-28T02:08:46.544Z,3.70
2019-01-28T02:11:14.968Z,3.49
2019-01-28T02:13:43.390Z,3.45
2019-01-28T02:16:11.912Z,3.67
2019-01-28T02:18:40.826Z,3.64
2019-01-28T02:21:09.682Z,3.59
2019-01-28T02:23:38.097Z,3.57
2019-01-28T02:26:06.614Z,3.53
2019-01-28T02:28:35.034Z,3.54
2019-01-28T02:31:03.592Z,3.64
2019-01-28T02:33:32.039Z,3.48
2019-01-28T02:36:00.458Z,3.41
2019-01-28T02:38:28.876Z,3.33
2019-01-28T02:40:57.357Z,3.35
2019-01-28T02:43:25.795Z,3.53
2019-01-28T02:45:54.272Z,3.37
2019-01-28T02:48:22.834Z,3.53
2019-01-28T02:50:51.253Z,3.56
2019-01-28T02:53:19.672Z,3.39
2019-01-28T02:55:48.458Z,3.48
2019-01-28T02:58:16.905Z,3.52
2019-01-28T03:00:45.302Z,3.30
2019-01-28T03:03:13.750Z,3.30
2019-01-28T03:05:42.195Z,3.48
2019-01-28T03:08:10.683Z,3.39
2019-01-28T03:10:39.130Z,3.61
2019-01-28T03:13:07.566Z,3.47
2019-01-28T03:15:35.987Z,3.49
2019-01-28T03:18:04.774Z,3.61
2019-01-28T03:20:33.196Z,3.35
2019-01-28T03:23:01.615Z,3.45
2019-01-28T03:25:30.251Z,3.39
2019-01-28T03:27:58.701Z,3.51
2019-01-28T03:30:27.129Z,3.35
2019-01-28T03:32:55.636Z,3.39
2019-01-28T03:35:24.039Z,3.23
2019-01-28T03:37:52.459Z,3.45
2019-01-28T03:40:21.679Z,3.32
2019-01-28T03:42:50.935Z,3.24
2019-01-28T03:45:21.504Z,3.50
2019-01-28T03:47:51.753Z,3.53
2019-01-28T03:50:20.512Z,3.63
2019-01-28T03:52:49.010Z,3.50
2019-01-28T03:55:17.582Z,3.52
2019-01-28T03:57:46.280Z,3.35
2019-01-28T04:00:17.783Z,3.34
2019-01-28T04:02:46.322Z,3.43
2019-01-28T04:05:15.080Z,3.34
2019-01-28T04:07:43.671Z,3.42
2019-01-28T04:10:17.763Z,3.32
2019-01-28T04:12:46.252Z,3.36
2019-01-28T04:15:17.608Z,3.24
2019-01-28T04:17:46.199Z,3.31
2019-01-28T04:20:16.363Z,3.24
2019-01-28T04:22:44.871Z,3.42
2019-01-28T04:25:13.990Z,3.28
2019-01-28T04:27:42.480Z,3.32
2019-01-28T04:30:25.899Z,3.46
2019-01-28T04:32:54.323Z,3.32
2019-01-28T04:35:22.905Z,3.36
2019-01-28T04:37:51.356Z,3.30
2019-01-28T04:40:20.125Z,3.25
2019-01-28T04:42:48.545Z,3.25
2019-01-28T04:45:19.320Z,3.23
2019-01-28T04:47:48.681Z,3.15
2019-01-28T04:50:18.952Z,3.25
2019-01-28T04:52:47.657Z,3.21
2019-01-28T04:55:16.813Z,3.39
2019-01-28T04:57:45.573Z,3.12
2019-01-28T05:00:22.990Z,3.23
2019-01-28T05:02:51.581Z,3.06
2019-01-28T05:05:20.139Z,3.10
2019-01-28T05:07:48.693Z,3.11
2019-01-28T05:10:19.051Z,3.18
2019-01-28T05:12:47.611Z,3.13
2019-01-28T05:15:18.105Z,3.35
2019-01-28T05:17:46.634Z,3.17
2019-01-28T05:20:20.567Z,3.11
2019-01-28T05:22:49.115Z,3.19
2019-01-28T05:25:18.177Z,3.05
2019-01-28T05:27:47.043Z,3.15
2019-01-28T05:30:21.488Z,3.00
2019-01-28T05:32:50.338Z,3.06
2019-01-28T05:35:20.093Z,3.12
2019-01-28T05:37:48.641Z,3.31
2019-01-28T05:40:24.579Z,3.17
2019-01-28T05:42:53.245Z,3.33
2019-01-28T05:45:23.413Z,3.15
2019-01-28T05:47:52.074Z,3.13
2019-01-28T05:50:20.831Z,3.22
2019-01-28T05:52:49.357Z,3.14
2019-01-28T05:55:19.135Z,3.15
2019-01-28T05:57:47.895Z,3.17
2019-01-28T06:00:29.780Z,3.13
2019-01-28T06:02:58.210Z,3.09
2019-01-28T06:05:26.699Z,3.17
2019-01-28T06:07:55.264Z,3.27
2019-01-28T06:10:23.686Z,3.15
2019-01-28T06:12:52.246Z,3.16
2019-01-28T06:15:21.146Z,3.21
2019-01-28T06:17:49.566Z,3.10
2019-01-28T06:20:22.813Z,3.13
2019-01-28T06:22:51.626Z,3.34
2019-01-28T06:25:20.124Z,3.40
2019-01-28T06:27:48.540Z,3.50
2019-01-28T06:30:36.358Z,3.51
2019-01-28T06:33:44.695Z,3.53
2019-01-28T06:36:13.176Z,3.20
2019-01-28T06:38:41.597Z,3.36
2019-01-28T06:41:29.314Z,3.41
2019-01-28T06:43:57.730Z,3.40
2019-01-28T06:46:26.151Z,3.37
2019-01-28T06:48:54.593Z,3.51
2019-01-28T06:51:23.015Z,3.39
2019-01-28T06:53:51.449Z,3.19
2019-01-28T06:56:19.939Z,3.22
2019-01-28T06:58:48.384Z,3.37
2019-01-28T07:04:11.498Z,3.33
2019-01-28T07:06:39.918Z,3.51
2019-01-28T07:09:48.289Z,3.59
2019-01-28T07:15:45.716Z,3.53
2019-01-28T07:18:14.137Z,3.25
2019-01-28T07:20:42.578Z,3.24
2019-01-28T07:23:30.432Z,3.40
2019-01-28T07:26:18.057Z,3.21
2019-01-28T07:29:05.849Z,3.19
2019-01-28T07:31:34.262Z,3.25
2019-01-28T07:34:02.710Z,3.16
2019-01-28T07:36:31.163Z,3.05
2019-01-28T07:39:18.801Z,3.15
2019-01-28T07:41:47.292Z,3.25
2019-01-28T07:44:34.902Z,3.08
2019-01-28T07:47:03.363Z,3.28
2019-01-28T07:49:31.786Z,3.20
2019-01-28T07:57:48.739Z,3.09
2019-01-28T08:00:36.991Z,3.19
2019-01-28T08:03:06.127Z,3.15
2019-01-28T08:05:34.965Z,3.06
2019-01-28T08:08:04.056Z,3.18
2019-01-28T08:10:32.768Z,3.04
2019-01-28T08:13:01.483Z,3.03
2019-01-28T08:15:30.600Z,3.14
2019-01-28T08:17:59.090Z,3.22
2019-01-28T08:20:27.874Z,3.06
2019-01-28T08:22:56.472Z,3.17
2019-01-28T08:25:25.350Z,3.26
2019-01-28T08:27:54.297Z,3.08
2019-01-28T08:30:28.932Z,3.14
2019-01-28T08:32:57.771Z,3.15
2019-01-28T08:35:35.893Z,3.23
2019-01-28T08:38:04.760Z,3.27
2019-01-28T08:40:33.628Z,3.06
2019-01-28T08:43:02.457Z,3.02
2019-01-28T08:45:31.171Z,3.11
2019-01-28T08:47:59.935Z,3.05
2019-01-28T08:50:29.787Z,2.99
2019-01-28T08:52:58.206Z,3.02
2019-01-28T08:55:28.768Z,2.95
2019-01-28T08:57:57.657Z,3.08
2019-01-28T09:00:35.048Z,3.14
2019-01-28T09:03:03.985Z,3.01
2019-01-28T09:05:33.068Z,2.95
2019-01-28T09:08:01.538Z,3.21
2019-01-28T09:10:31.523Z,2.92
2019-01-28T09:13:00.406Z,2.95
2019-01-28T09:15:29.366Z,2.91
2019-01-28T09:17:58.354Z,3.14
2019-01-28T09:20:32.250Z,3.13
2019-01-28T09:23:01.074Z,3.01
2019-01-28T09:25:31.318Z,3.09
2019-01-28T09:28:06.304Z,3.15
2019-01-28T09:30:36.115Z,3.18
2019-01-28T09:33:05.435Z,3.19
2019-01-28T09:35:34.269Z,2.96
2019-01-28T09:38:03.218Z,3.13
2019-01-28T09:40:34.187Z,3.04
2019-01-28T09:43:03.041Z,3.06
2019-01-28T09:45:34.567Z,3.12
2019-01-28T09:48:03.347Z,3.18
2019-01-28T09:50:32.199Z,3.16
2019-01-28T09:53:01.416Z,3.28
2019-01-28T09:55:30.280Z,3.11
2019-01-28T09:57:59.114Z,3.31
2019-01-28T10:00:30.723Z,3.40
2019-01-28T10:02:59.700Z,3.17
2019-01-28T10:05:28.628Z,3.34
2019-01-28T10:07:57.662Z,3.23
2019-01-28T10:10:26.526Z,3.50
2019-01-28T10:12:55.239Z,3.46
2019-01-28T10:15:28.738Z,3.33
2019-01-28T10:17:56.827Z,3.45
2019-01-28T10:20:31.021Z,3.40
2019-01-28T10:22:59.886Z,3.35
2019-01-28T10:25:28.775Z,3.39
2019-01-28T10:27:57.770Z,3.50
2019-01-28T10:30:32.447Z,3.35
2019-01-28T10:33:01.433Z,3.59
2019-01-28T10:35:31.292Z,3.64
2019-01-28T10:38:00.242Z,3.71
2019-01-28T10:40:31.480Z,3.76
2019-01-28T10:43:00.750Z,3.79
2019-01-28T10:45:29.323Z,3.85
2019-01-28T10:48:00.631Z,3.72
2019-01-28T10:50:29.633Z,3.91
2019-01-28T10:56:34.122Z,3.87
2019-01-28T10:59:02.625Z,3.95
2019-01-28T11:01:34.018Z,4.01
2019-01-28T11:04:02.882Z,4.10
2019-01-28T11:20:27.113Z,4.24
2019-01-28T11:22:56.054Z,4.24
2019-01-28T11:25:31.014Z,4.37
2019-01-28T11:28:00.208Z,4.33
2019-01-28T11:30:53.667Z,4.34
2019-01-28T11:33:22.357Z,4.41
2019-01-28T11:35:51.492Z,4.56
2019-01-28T11:38:23.190Z,4.42
2019-01-28T11:40:52.199Z,4.58
2019-01-28T11:43:20.798Z,4.72
2019-01-28T11:45:58.488Z,4.65
2019-01-28T11:48:27.252Z,4.82
2019-01-28T11:50:56.410Z,4.68
2019-01-28T12:13:02.070Z,4.76
2019-01-28T12:15:30.997Z,4.87
2019-01-28T12:17:59.924Z,4.68
2019-01-28T12:20:28.865Z,4.67
2019-01-28T12:22:57.753Z,4.92
2019-01-28T12:25:26.353Z,4.79
2019-01-28T12:27:55.249Z,5.00
2019-01-28T12:30:32.136Z,4.74
2019-01-28T12:33:01.930Z,4.74
2019-01-28T12:35:30.766Z,4.94
2019-01-28T12:38:00.024Z,4.80
2019-01-28T12:40:28.998Z,4.76
2019-01-28T12:42:57.494Z,4.92
2019-01-28T12:45:28.086Z,5.03
2019-01-28T12:48:00.385Z,5.09
2019-01-28T12:50:29.462Z,5.14
2019-01-28T12:52:58.426Z,5.02
2019-01-28T12:55:28.064Z,4.99
2019-01-28T12:57:56.827Z,5.10
2019-01-28T13:00:38.146Z,5.20
2019-01-28T13:03:07.711Z,5.13
2019-01-28T13:05:37.604Z,5.08
2019-01-28T13:08:06.183Z,4.98
2019-01-28T13:10:34.864Z,4.96
2019-01-28T13:13:03.353Z,4.94
2019-01-28T13:15:33.945Z,4.99
2019-01-28T13:18:02.440Z,4.98
2019-01-28T13:20:30.997Z,5.03
2019-01-28T13:22:59.521Z,4.87
2019-01-28T13:25:36.060Z,4.84
2019-01-28T13:28:05.850Z,4.89
2019-01-28T13:30:39.295Z,5.00
2019-01-28T13:33:11.451Z,4.99
2019-01-28T13:35:40.113Z,4.83
2019-01-28T13:38:08.767Z,4.79
2019-01-28T13:40:37.405Z,4.78
2019-01-28T13:43:06.252Z,4.85
2019-01-28T13:45:35.122Z,4.99
2019-01-28T13:48:05.351Z,4.92
2019-01-28T13:50:33.830Z,4.79
2019-01-28T13:53:02.319Z,4.89
2019-01-28T13:55:31.091Z,4.91
2019-01-28T13:57:59.563Z,4.97
2019-01-28T14:00:29.317Z,5.04
2019-01-28T14:02:58.719Z,5.12
2019-01-28T14:05:27.566Z,5.17
2019-01-28T14:07:57.122Z,5.19
2019-01-28T14:10:26.124Z,5.24
2019-01-28T14:12:54.878Z,5.29
2019-01-28T14:15:28.807Z,5.13
2019-01-28T14:17:57.422Z,5.15
2019-01-28T14:20:28.559Z,5.28
2019-01-28T14:22:57.053Z,5.11
2019-01-28T14:25:25.682Z,5.09
2019-01-28T14:27:54.123Z,5.13
2019-01-28T14:30:37.757Z,5.18
2019-01-28T14:33:07.117Z,5.22
2019-01-28T14:35:35.880Z,5.04
2019-01-28T14:38:05.763Z,5.13
2019-01-28T14:40:34.422Z,5.09
2019-01-28T14:43:02.912Z,4.97
2019-01-28T14:45:31.430Z,4.86
2019-01-28T14:48:00.008Z,4.82
2019-01-28T14:50:31.486Z,4.93
2019-01-28T14:53:00.120Z,4.88
2019-01-28T14:55:28.629Z,4.88
2019-01-28T14:57:57.210Z,4.85
2019-01-28T15:00:34.230Z,5.04
2019-01-28T15:03:02.653Z,5.04
2019-01-28T15:05:31.538Z,4.98
2019-01-28T15:08:00.419Z,4.98
2019-01-28T15:10:28.903Z,4.89
2019-01-28T15:12:57.425Z,4.95
2019-01-28T15:15:31.119Z,4.98
2019-01-28T15:18:00.093Z,5.06
2019-01-28T15:20:28.656Z,5.05
2019-01-28T15:22:57.177Z,5.09
2019-01-28T15:25:25.762Z,5.01
2019-01-28T15:27:54.170Z,4.94
2019-01-28T15:30:25.633Z,4.91
2019-01-28T15:32:54.357Z,4.89
2019-01-28T15:35:23.145Z,4.81
2019-01-28T15:37:51.639Z,4.82
2019-01-28T15:40:25.618Z,4.77
2019-01-28T15:42:54.111Z,4.69
2019-01-28T15:45:28.328Z,4.79
2019-01-28T15:47:56.989Z,4.81
2019-01-28T15:50:25.652Z,4.64
2019-01-28T15:52:54.091Z,4.53
2019-01-28T15:55:28.230Z,4.48
2019-01-28T15:57:56.714Z,4.38
2019-01-28T16:00:28.359Z,4.31
2019-01-28T16:02:57.020Z,4.25
2019-01-28T16:05:25.438Z,4.27
2019-01-28T16:07:54.039Z,4.26
2019-01-28T16:10:22.630Z,4.05
2019-01-28T16:12:51.091Z,4.08
2019-01-28T16:15:25.640Z,4.03
2019-01-28T16:17:54.213Z,4.08
2019-01-28T16:20:22.779Z,4.07
2019-01-28T16:22:51.330Z,4.18
2019-01-28T16:25:19.827Z,4.05
2019-01-28T16:27:48.487Z,4.08
2019-01-28T16:30:26.574Z,4.07
2019-01-28T16:32:55.402Z,4.30
2019-01-28T16:35:24.429Z,4.15
2019-01-28T16:37:54.075Z,4.08
2019-01-28T16:40:29.919Z,4.26
2019-01-28T16:42:59.507Z,4.11
2019-01-28T16:45:28.065Z,4.14
2019-01-28T16:47:56.654Z,4.19
2019-01-28T16:50:30.697Z,4.30
2019-01-28T16:52:59.189Z,4.55
2019-01-28T16:55:27.758Z,4.56
2019-01-28T16:57:56.982Z,4.63
2019-01-28T17:00:30.260Z,4.84
2019-01-28T17:02:58.819Z,4.76
2019-01-28T17:05:28.499Z,4.82
2019-01-28T17:07:57.115Z,4.69
2019-01-28T17:10:25.807Z,4.72
2019-01-28T17:12:54.271Z,4.74
2019-01-28T17:15:23.638Z,4.59
2019-01-28T17:17:52.231Z,4.77
2019-01-28T17:20:35.472Z,4.83
2019-01-28T17:23:01.615Z,4.65
2019-01-28T17:25:41.511Z,4.52
2019-01-28T17:28:10.763Z,4.72
2019-01-28T17:30:43.978Z,4.71
2019-01-28T17:33:13.069Z,4.76
2019-01-28T17:35:41.829Z,4.84
2019-01-28T17:38:10.617Z,4.49
2019-01-28T17:40:40.440Z,4.31
2019-01-28T17:43:10.410Z,4.42
2019-01-28T17:45:39.167Z,4.40
2019-01-28T17:48:08.778Z,4.50
2019-01-28T17:50:43.433Z,4.32
2019-01-28T17:53:07.792Z,4.57
2019-01-28T17:55:36.414Z,4.33
2019-01-28T17:58:06.283Z,4.25
2019-01-28T18:00:39.402Z,4.17
2019-01-28T18:03:08.003Z,4.19
2019-01-28T18:05:36.445Z,4.07
2019-01-28T18:08:05.884Z,4.19
2019-01-28T18:10:34.670Z,4.35
2019-01-28T18:13:03.090Z,4.34
2019-01-28T18:15:31.514Z,4.24
2019-01-28T18:18:00.079Z,4.08
2019-01-28T18:20:28.565Z,4.10
2019-01-28T18:22:58.346Z,4.03
2019-01-28T18:25:32.383Z,3.99
2019-01-28T18:28:00.943Z,3.95
2019-01-28T18:31:09.320Z,3.96
2019-01-28T18:33:56.933Z,3.87
2019-01-28T18:36:44.625Z,3.84
2019-01-28T18:39:32.308Z,3.90
2019-01-28T18:42:00.769Z,3.92
2019-01-28T18:44:48.511Z,3.68
2019-01-28T18:47:36.279Z,3.66
2019-01-28T18:50:44.625Z,3.78
2019-01-28T18:53:13.113Z,3.73
2019-01-28T18:56:00.852Z,3.72
2019-01-28T18:58:48.491Z,3.60
2019-01-28T19:01:16.912Z,3.52
2019-01-28T19:06:58.082Z,3.57
2019-01-28T19:12:25.294Z,3.62
2019-01-28T19:25:27.178Z,3.53
2019-01-28T19:27:55.603Z,3.43
2019-01-28T19:30:43.393Z,3.36
2019-01-28T19:33:11.955Z,3.43
2019-01-28T19:35:40.478Z,3.44
2019-01-28T19:41:21.260Z,3.40
2019-01-28T19:46:43.408Z,3.44
2019-01-28T19:52:24.886Z,3.48
2019-01-28T19:58:26.388Z,3.42
2019-01-28T20:01:14.080Z,3.54
2019-01-28T20:04:01.861Z,3.64
2019-01-28T20:09:43.086Z,3.61
2019-01-28T20:12:11.596Z,3.79
2019-01-28T20:18:07.510Z,3.43
2019-01-28T20:20:55.224Z,3.67
2019-01-28T20:26:37.576Z,3.42
2019-01-28T20:29:45.991Z,3.45
2019-01-28T20:32:33.777Z,3.60
2019-01-28T20:35:21.554Z,3.64
2019-01-28T20:37:50.179Z,3.48
2019-01-28T20:40:37.954Z,3.56
2019-01-28T20:43:25.737Z,3.56
2019-01-28T20:46:13.528Z,3.48
2019-01-28T20:49:01.456Z,3.41
2019-01-28T20:52:09.865Z,3.42
2019-01-28T20:57:31.355Z,3.44
2019-01-28T20:59:59.889Z,3.44
2019-01-28T21:02:28.367Z,3.55
2019-01-28T21:05:37.103Z,3.59
2019-01-28T21:11:32.862Z,3.48
2019-01-28T21:14:01.336Z,3.34
2019-01-28T21:16:29.803Z,3.53
2019-01-28T21:21:34.154Z,3.41
2019-01-28T21:24:02.727Z,3.34
2019-01-28T21:26:31.146Z,3.50
2019-01-28T21:28:59.583Z,3.39
2019-01-28T21:31:47.358Z,3.67
2019-01-28T21:34:15.779Z,3.46
2019-01-28T21:42:07.153Z,3.71
2019-01-28T21:44:35.580Z,3.53
2019-01-28T21:49:58.243Z,3.37
2019-01-28T21:52:26.673Z,3.35
2019-01-28T21:54:55.094Z,3.61
2019-01-28T21:57:23.544Z,3.53
2019-01-28T21:59:51.974Z,3.49
2019-01-28T22:02:39.786Z,3.31
2019-01-28T22:05:48.122Z,3.40
2019-01-28T22:08:16.571Z,3.41
2019-01-28T22:10:44.995Z,3.32
2019-01-28T22:13:13.414Z,3.24
2019-01-28T22:18:15.418Z,3.33
2019-01-28T22:23:17.777Z,3.22
2019-01-28T22:28:20.043Z,3.14
2019-01-28T22:30:48.467Z,3.04
2019-01-28T22:33:36.325Z,3.07
2019-01-28T22:41:52.335Z,3.04
2019-01-28T22:44:20.750Z,3.08
2019-01-28T22:49:22.878Z,3.13
2019-01-28T22:51:51.307Z,3.17
2019-01-28T22:54:39.075Z,3.18
2019-01-28T22:57:07.495Z,3.09
2019-01-28T22:59:35.920Z,3.11
2019-01-28T23:02:23.758Z,3.07
2019-01-28T23:04:52.173Z,2.98
2019-01-28T23:07:20.593Z,3.12
2019-01-28T23:12:22.984Z,3.05
2019-01-28T23:14:51.438Z,2.95
2019-01-28T23:17:19.859Z,3.05
2019-01-28T23:19:48.277Z,3.20
2019-01-28T23:22:16.832Z,3.09
2019-01-28T23:24:45.218Z,3.09
2019-01-28T23:27:13.638Z,3.17
2019-01-28T23:32:16.050Z,3.18
2019-01-28T23:37:39.310Z,3.08
2019-01-28T23:40:28.513Z,3.03
2019-01-28T23:43:16.342Z,3.09
2019-01-28T23:45:44.761Z,2.96
2019-01-28T23:48:13.182Z,2.83
2019-01-28T23:50:41.626Z,2.82
2019-01-28T23:53:10.041Z,2.83
2019-01-28T23:55:57.755Z,2.88
2019-01-28T23:58:26.174Z,2.78
